Time;durP1;ratioP1;P1;durP2;ratioP2;P2;SDS_P1;SDS_P2;PMS_P1;PMS_P2;Temp;Humidity;BMP_temperature;BMP_pressure;BME280_temperature;BME280_humidity;BME280_pressure;Samples;Min_cycle;Max_cycle;Signal;HPM_P1;HPM_P2
2021/07/09 00:01:10;;;;;;;3.30;3.00;;;;;;;;;;4969868;28;20688;-69
2021/07/09 00:03:36;;;;;;;4.20;3.83;;;;;;;;;;4971266;28;20023;-69
2021/07/09 00:06:01;;;;;;;4.45;2.90;;;;;;;;;;4968649;28;20644;-69
2021/07/09 00:08:27;;;;;;;3.10;2.90;;;;;;;;;;4969075;28;20088;-69
2021/07/09 00:10:52;;;;;;;3.50;3.30;;;;;;;;;;4969661;28;20031;-70
2021/07/09 00:13:17;;;;;;;4.55;3.22;;;;;;;;;;4969048;28;20122;-70
2021/07/09 00:15:42;;;;;;;5.10;3.67;;;;;;;;;;4971566;28;20479;-69
2021/07/09 00:18:07;;;;;;;3.80;2.90;;;;;;;;;;4969495;28;20286;-71
2021/07/09 00:20:33;;;;;;;3.70;3.30;;;;;;;;;;4969491;28;20042;-70
2021/07/09 00:22:58;;;;;;;4.15;3.08;;;;;;;;;;4968456;28;20043;-69
2021/07/09 00:25:23;;;;;;;5.97;4.07;;;;;;;;;;4969172;28;20019;-70
2021/07/09 00:27:49;;;;;;;5.43;3.60;;;;;;;;;;4971542;28;20262;-70
2021/07/09 00:30:14;;;;;;;3.70;3.40;;;;;;;;;;4969570;28;20698;-70
2021/07/09 00:32:39;;;;;;;3.40;3.17;;;;;;;;;;4969074;28;20035;-70
2021/07/09 00:35:05;;;;;;;3.47;3.20;;;;;;;;;;4969618;28;20031;-69
2021/07/09 00:37:30;;;;;;;2.70;2.50;;;;;;;;;;4967646;28;20035;-69
2021/07/09 00:39:55;;;;;;;4.57;2.97;;;;;;;;;;4980784;28;20034;-70
2021/07/09 00:42:21;;;;;;;4.03;3.00;;;;;;;;;;4988210;28;20061;-69
2021/07/09 00:44:46;;;;;;;2.50;2.30;;;;;;;;;;4988929;28;20078;-70
2021/07/09 00:47:11;;;;;;;2.90;2.13;;;;;;;;;;4987822;28;20500;-71
2021/07/09 00:49:36;;;;;;;3.88;3.42;;;;;;;;;;4992218;28;20043;-70
2021/07/09 00:52:02;;;;;;;3.83;2.70;;;;;;;;;;4989670;28;20023;-70
2021/07/09 00:54:27;;;;;;;4.90;2.72;;;;;;;;;;4972238;28;20027;-69
2021/07/09 00:56:52;;;;;;;2.35;2.25;;;;;;;;;;4971604;28;20118;-70
2021/07/09 00:59:23;;;;;;;2.72;2.47;;;;;;;;;;4973148;28;20047;-69
2021/07/09 01:01:48;;;;;;;3.00;2.80;;;;;;;;;;4973044;28;20511;-70
2021/07/09 01:04:13;;;;;;;3.08;2.63;;;;;;;;;;4971990;28;20023;-70
2021/07/09 01:06:38;;;;;;;2.20;2.00;;;;;;;;;;4974616;28;20031;-70
2021/07/09 01:09:03;;;;;;;2.58;2.35;;;;;;;;;;4972373;28;20270;-69
2021/07/09 01:11:29;;;;;;;2.45;2.00;;;;;;;;;;4971219;28;20035;-69
2021/07/09 01:13:54;;;;;;;7.03;2.72;;;;;;;;;;4972126;28;20046;-70
2021/07/09 01:16:19;;;;;;;3.08;2.75;;;;;;;;;;4972651;28;20113;-70
2021/07/09 01:18:45;;;;;;;2.40;2.17;;;;;;;;;;4974602;28;20354;-70
2021/07/09 01:21:10;;;;;;;4.70;3.42;;;;;;;;;;4972445;28;20046;-69
2021/07/09 01:23:36;;;;;;;2.85;2.65;;;;;;;;;;4970576;28;20384;-73
2021/07/09 01:26:02;;;;;;;3.30;2.92;;;;;;;;;;4990814;28;20129;-70
2021/07/09 01:28:27;;;;;;;2.40;2.30;;;;;;;;;;4992152;28;20503;-70
2021/07/09 01:30:52;;;;;;;4.00;3.20;;;;;;;;;;4993733;28;20031;-71
2021/07/09 01:33:18;;;;;;;2.50;2.30;;;;;;;;;;4991477;28;20524;-69
2021/07/09 01:35:43;;;;;;;3.42;2.63;;;;;;;;;;4991799;28;20035;-70
2021/07/09 01:38:08;;;;;;;2.08;1.88;;;;;;;;;;4980687;28;20370;-71
2021/07/09 01:40:35;;;;;;;2.83;2.63;;;;;;;;;;4970971;28;20045;-70
2021/07/09 01:43:00;;;;;;;2.97;2.78;;;;;;;;;;4973803;28;20062;-71
2021/07/09 01:45:26;;;;;;;2.50;2.28;;;;;;;;;;4972119;28;20062;-70
2021/07/09 01:47:52;;;;;;;2.67;2.47;;;;;;;;;;4972005;28;20035;-70
2021/07/09 01:50:17;;;;;;;3.83;2.40;;;;;;;;;;4972165;28;20041;-70
2021/07/09 01:52:45;;;;;;;2.65;2.45;;;;;;;;;;4970110;28;20137;-70
2021/07/09 01:55:11;;;;;;;3.47;2.00;;;;;;;;;;4971665;28;20227;-70
2021/07/09 01:57:36;;;;;;;3.85;1.80;;;;;;;;;;4974210;28;20094;-71
2021/07/09 02:00:05;;;;;;;1.95;1.70;;;;;;;;;;4971780;28;20138;-71
2021/07/09 02:02:30;;;;;;;1.70;1.60;;;;;;;;;;4970151;28;20570;-70
2021/07/09 02:04:56;;;;;;;2.33;2.10;;;;;;;;;;4970801;28;20121;-71
2021/07/09 02:07:23;;;;;;;2.60;1.75;;;;;;;;;;4971624;28;20352;-70
2021/07/09 02:09:49;;;;;;;1.88;1.77;;;;;;;;;;4973510;28;20098;-71
2021/07/09 02:12:16;;;;;;;1.88;1.77;;;;;;;;;;4971139;28;20070;-71
2021/07/09 02:14:41;;;;;;;3.03;1.70;;;;;;;;;;4970250;28;20527;-71
2021/07/09 02:17:11;;;;;;;1.38;1.27;;;;;;;;;;4970488;28;20038;-70
2021/07/09 02:19:38;;;;;;;1.35;1.35;;;;;;;;;;4971599;28;20070;-70
2021/07/09 02:22:04;;;;;;;1.85;1.33;;;;;;;;;;4973003;28;20042;-71
2021/07/09 02:24:32;;;;;;;1.10;1.10;;;;;;;;;;4970622;28;20026;-70
2021/07/09 02:26:57;;;;;;;1.52;0.88;;;;;;;;;;4971505;28;20046;-72
2021/07/09 02:29:22;;;;;;;0.55;0.50;;;;;;;;;;4971437;28;20129;-71
2021/07/09 02:31:48;;;;;;;1.00;0.60;;;;;;;;;;4971591;28;20058;-71
2021/07/09 02:34:13;;;;;;;0.40;0.40;;;;;;;;;;4970539;28;20023;-71
2021/07/09 02:36:38;;;;;;;0.40;0.40;;;;;;;;;;4973914;28;20106;-71
2021/07/09 02:39:04;;;;;;;0.30;0.30;;;;;;;;;;4971369;28;20647;-71
2021/07/09 02:41:29;;;;;;;0.30;0.22;;;;;;;;;;4970170;28;20621;-71
2021/07/09 02:43:54;;;;;;;1.08;0.25;;;;;;;;;;4970154;28;20031;-72
2021/07/09 02:46:19;;;;;;;0.20;0.20;;;;;;;;;;4970166;28;20049;-71
2021/07/09 02:48:45;;;;;;;0.90;0.40;;;;;;;;;;4973526;28;20023;-71
2021/07/09 02:51:10;;;;;;;0.68;0.30;;;;;;;;;;4970316;28;20038;-71
2021/07/09 02:53:35;;;;;;;0.30;0.30;;;;;;;;;;4970233;28;20054;-71
2021/07/09 02:56:00;;;;;;;0.52;0.30;;;;;;;;;;4979646;28;20266;-71
2021/07/09 02:58:25;;;;;;;0.43;0.35;;;;;;;;;;4988823;28;20026;-71
2021/07/09 03:00:51;;;;;;;0.38;0.20;;;;;;;;;;4992153;28;20031;-71
2021/07/09 03:03:16;;;;;;;1.38;0.30;;;;;;;;;;4989586;28;20022;-71
2021/07/09 03:05:41;;;;;;;1.08;0.20;;;;;;;;;;4988933;28;20026;-71
2021/07/09 03:08:07;;;;;;;1.75;0.85;;;;;;;;;;4981324;28;20030;-70
2021/07/09 03:10:32;;;;;;;0.20;0.20;;;;;;;;;;4969760;28;20027;-71
2021/07/09 03:12:57;;;;;;;0.20;0.20;;;;;;;;;;4971997;28;20027;-71
2021/07/09 03:15:22;;;;;;;0.65;0.10;;;;;;;;;;4970502;28;20378;-71
2021/07/09 03:17:48;;;;;;;0.20;0.20;;;;;;;;;;4968993;28;20046;-70
2021/07/09 03:20:13;;;;;;;0.20;0.20;;;;;;;;;;4970357;28;20489;-71
2021/07/09 03:22:38;;;;;;;0.60;0.20;;;;;;;;;;4969522;28;20042;-72
2021/07/09 03:25:04;;;;;;;2.10;0.20;;;;;;;;;;4971983;28;20037;-71
2021/07/09 03:27:30;;;;;;;0.52;0.20;;;;;;;;;;4970243;28;20423;-71
2021/07/09 03:29:55;;;;;;;0.43;0.10;;;;;;;;;;4970161;28;20034;-72
2021/07/09 03:32:20;;;;;;;0.13;0.13;;;;;;;;;;4969789;28;20047;-72
2021/07/09 03:34:45;;;;;;;0.45;0.10;;;;;;;;;;4970138;28;20261;-72
2021/07/09 03:37:10;;;;;;;0.30;0.20;;;;;;;;;;4970247;28;20019;-72
2021/07/09 03:39:35;;;;;;;0.17;0.10;;;;;;;;;;4971601;28;20034;-71
2021/07/09 03:42:01;;;;;;;0.32;0.22;;;;;;;;;;4969811;28;20668;-71
2021/07/09 03:44:26;;;;;;;0.70;0.20;;;;;;;;;;4969572;28;20117;-72
2021/07/09 03:46:51;;;;;;;0.20;0.20;;;;;;;;;;4969839;28;20392;-74
2021/07/09 03:49:16;;;;;;;0.57;0.20;;;;;;;;;;4969904;28;20266;-72
2021/07/09 03:51:42;;;;;;;0.30;0.30;;;;;;;;;;4971769;28;20019;-71
2021/07/09 03:54:07;;;;;;;0.45;0.28;;;;;;;;;;4969129;28;20030;-71
2021/07/09 03:56:32;;;;;;;0.40;0.40;;;;;;;;;;4968433;28;20031;-71
2021/07/09 03:58:58;;;;;;;0.68;0.30;;;;;;;;;;4969532;28;20035;-72
2021/07/09 04:01:23;;;;;;;0.65;0.65;;;;;;;;;;4969633;28;20035;-71
2021/07/09 04:03:48;;;;;;;3.85;0.40;;;;;;;;;;4971200;28;20023;-72
2021/07/09 04:06:13;;;;;;;1.20;0.40;;;;;;;;;;4969675;28;20145;-71
2021/07/09 04:08:39;;;;;;;0.57;0.40;;;;;;;;;;4968120;28;20122;-71
2021/07/09 04:11:04;;;;;;;0.63;0.47;;;;;;;;;;4969426;28;20035;-72
2021/07/09 04:13:29;;;;;;;2.25;0.43;;;;;;;;;;4969306;28;20129;-71
2021/07/09 04:15:54;;;;;;;0.90;0.50;;;;;;;;;;4970344;28;20019;-72
2021/07/09 04:18:20;;;;;;;2.58;0.60;;;;;;;;;;4968438;28;20035;-72
2021/07/09 04:20:45;;;;;;;0.40;0.40;;;;;;;;;;4969445;28;20054;-72
2021/07/09 04:23:10;;;;;;;0.40;0.40;;;;;;;;;;4969816;28;20061;-71
2021/07/09 04:25:35;;;;;;;0.37;0.30;;;;;;;;;;4973101;28;20039;-72
2021/07/09 04:28:00;;;;;;;0.47;0.47;;;;;;;;;;4974269;28;20786;-73
2021/07/09 04:30:26;;;;;;;0.53;0.53;;;;;;;;;;4973389;28;20504;-72
2021/07/09 04:32:51;;;;;;;0.95;0.45;;;;;;;;;;4973113;28;20278;-71
2021/07/09 04:35:16;;;;;;;1.70;0.55;;;;;;;;;;4973300;28;20126;-71
2021/07/09 04:37:41;;;;;;;0.60;0.60;;;;;;;;;;4972919;28;20039;-72
2021/07/09 04:40:07;;;;;;;0.60;0.60;;;;;;;;;;4983075;28;20076;-71
2021/07/09 04:42:32;;;;;;;0.60;0.60;;;;;;;;;;4972828;28;20516;-71
2021/07/09 04:44:58;;;;;;;0.60;0.60;;;;;;;;;;4973076;28;20031;-72
2021/07/09 04:47:23;;;;;;;1.20;0.60;;;;;;;;;;4973030;28;20046;-71
2021/07/09 04:49:49;;;;;;;0.70;0.70;;;;;;;;;;4971945;28;20038;-72
2021/07/09 04:52:14;;;;;;;0.40;0.40;;;;;;;;;;4972661;28;20098;-71
2021/07/09 04:54:39;;;;;;;0.80;0.60;;;;;;;;;;4974563;28;20107;-72
2021/07/09 04:57:04;;;;;;;0.77;0.77;;;;;;;;;;4972745;28;20121;-72
2021/07/09 04:59:29;;;;;;;0.90;0.90;;;;;;;;;;4972954;28;20444;-72
2021/07/09 05:01:55;;;;;;;0.83;0.80;;;;;;;;;;4972756;28;20035;-72
2021/07/09 05:04:20;;;;;;;0.70;0.70;;;;;;;;;;4970895;28;20266;-71
2021/07/09 05:06:46;;;;;;;0.75;0.57;;;;;;;;;;4974973;28;20049;-72
2021/07/09 05:09:11;;;;;;;0.98;0.80;;;;;;;;;;4971431;28;20038;-72
2021/07/09 05:11:38;;;;;;;1.27;0.88;;;;;;;;;;4978129;28;20048;-72
2021/07/09 05:14:04;;;;;;;1.38;0.60;;;;;;;;;;4991706;28;20121;-71
2021/07/09 05:16:29;;;;;;;0.88;0.77;;;;;;;;;;4992255;28;20101;-72
2021/07/09 05:18:56;;;;;;;0.70;0.70;;;;;;;;;;4994078;28;20026;-72
2021/07/09 05:21:21;;;;;;;1.25;0.90;;;;;;;;;;4992307;28;20070;-71
2021/07/09 05:23:47;;;;;;;0.95;0.60;;;;;;;;;;4983756;28;20602;-72
2021/07/09 05:26:12;;;;;;;0.80;0.70;;;;;;;;;;4972493;28;20035;-72
2021/07/09 05:28:37;;;;;;;0.70;0.70;;;;;;;;;;4972763;28;20337;-72
2021/07/09 05:31:02;;;;;;;0.60;0.60;;;;;;;;;;4973320;28;20447;-71
2021/07/09 05:33:28;;;;;;;1.35;0.80;;;;;;;;;;4971764;28;20278;-72
2021/07/09 05:35:54;;;;;;;0.70;0.70;;;;;;;;;;4972368;28;20481;-73
2021/07/09 05:38:19;;;;;;;0.68;0.68;;;;;;;;;;4971966;28;20035;-72
2021/07/09 05:40:44;;;;;;;1.27;0.93;;;;;;;;;;4986929;28;20077;-72
2021/07/09 05:43:10;;;;;;;0.50;0.50;;;;;;;;;;4993181;28;20274;-72
2021/07/09 05:45:35;;;;;;;0.30;0.30;;;;;;;;;;4990447;28;20088;-72
2021/07/09 05:48:00;;;;;;;0.65;0.50;;;;;;;;;;4991580;28;20274;-72
2021/07/09 05:50:28;;;;;;;1.02;0.85;;;;;;;;;;4991110;28;20034;-72
2021/07/09 05:52:56;;;;;;;0.65;0.40;;;;;;;;;;4991126;28;20039;-73
2021/07/09 05:55:22;;;;;;;0.45;0.30;;;;;;;;;;4971552;28;20046;-72
2021/07/09 05:57:47;;;;;;;0.55;0.40;;;;;;;;;;4973899;28;20097;-72
2021/07/09 06:00:12;;;;;;;0.40;0.40;;;;;;;;;;4972025;28;20501;-72
2021/07/09 06:02:37;;;;;;;0.55;0.52;;;;;;;;;;4970083;28;20456;-72
2021/07/09 06:05:03;;;;;;;0.30;0.30;;;;;;;;;;4971474;28;20031;-73
2021/07/09 06:07:29;;;;;;;0.82;0.40;;;;;;;;;;4970514;28;20113;-72
2021/07/09 06:09:54;;;;;;;0.57;0.50;;;;;;;;;;4973094;28;20186;-72
2021/07/09 06:12:19;;;;;;;0.50;0.50;;;;;;;;;;4971265;28;20102;-73
2021/07/09 06:14:44;;;;;;;0.47;0.47;;;;;;;;;;4971588;28;20302;-72
2021/07/09 06:17:09;;;;;;;0.63;0.50;;;;;;;;;;4970289;28;20271;-72
2021/07/09 06:19:35;;;;;;;0.60;0.60;;;;;;;;;;4970216;28;20042;-72
2021/07/09 06:22:00;;;;;;;2.03;0.60;;;;;;;;;;4972174;28;20095;-73
2021/07/09 06:24:25;;;;;;;1.37;0.70;;;;;;;;;;4970773;28;20535;-72
2021/07/09 06:26:50;;;;;;;0.80;0.63;;;;;;;;;;4978901;28;20336;-73
2021/07/09 06:29:16;;;;;;;0.90;0.73;;;;;;;;;;4990665;28;20034;-72
2021/07/09 06:31:41;;;;;;;0.82;0.55;;;;;;;;;;4990715;28;20345;-73
2021/07/09 06:34:06;;;;;;;0.88;0.68;;;;;;;;;;4992076;28;20074;-72
2021/07/09 06:36:32;;;;;;;1.40;0.60;;;;;;;;;;4989286;28;20061;-73
2021/07/09 06:38:57;;;;;;;0.70;0.70;;;;;;;;;;4983751;28;20282;-72
2021/07/09 06:41:22;;;;;;;0.80;0.80;;;;;;;;;;4969508;28;20058;-72
2021/07/09 06:43:47;;;;;;;0.60;0.60;;;;;;;;;;4970546;28;20361;-72
2021/07/09 06:46:13;;;;;;;1.30;1.20;;;;;;;;;;4970068;28;20034;-73
2021/07/09 06:48:38;;;;;;;0.88;0.82;;;;;;;;;;4971722;28;20109;-72
2021/07/09 06:51:03;;;;;;;0.80;0.80;;;;;;;;;;4971198;28;20039;-72
2021/07/09 06:53:28;;;;;;;0.90;0.90;;;;;;;;;;4968540;28;20045;-72
2021/07/09 06:55:54;;;;;;;0.70;0.70;;;;;;;;;;4972202;28;20030;-72
2021/07/09 06:58:19;;;;;;;1.45;0.80;;;;;;;;;;4989406;28;20018;-72
2021/07/09 07:00:44;;;;;;;0.77;0.77;;;;;;;;;;4992629;28;20121;-71
2021/07/09 07:03:10;;;;;;;1.30;1.20;;;;;;;;;;4988825;28;20039;-71
2021/07/09 07:05:35;;;;;;;1.17;1.02;;;;;;;;;;4990284;28;20030;-73
2021/07/09 07:08:13;;;;;;;1.17;1.10;;;;;;;;;;4990044;28;20042;-73
2021/07/09 07:10:39;;;;;;;1.27;1.17;;;;;;;;;;4970589;28;20118;-71
2021/07/09 07:13:04;;;;;;;2.28;1.40;;;;;;;;;;4989523;28;20129;-72
2021/07/09 07:15:29;;;;;;;2.20;1.30;;;;;;;;;;4989857;28;20030;-71
2021/07/09 07:17:54;;;;;;;2.50;1.85;;;;;;;;;;4989829;28;20370;-73
2021/07/09 07:20:19;;;;;;;1.60;1.50;;;;;;;;;;4990002;28;20049;-72
2021/07/09 07:22:45;;;;;;;1.63;1.52;;;;;;;;;;4989435;28;20039;-73
2021/07/09 07:25:10;;;;;;;1.97;1.33;;;;;;;;;;4976832;28;20030;-73
2021/07/09 07:27:35;;;;;;;1.98;1.50;;;;;;;;;;4970444;28;20271;-72
2021/07/09 07:30:01;;;;;;;1.40;1.33;;;;;;;;;;4970069;28;20373;-72
2021/07/09 07:32:26;;;;;;;1.67;1.25;;;;;;;;;;4969774;28;20508;-72
2021/07/09 07:34:52;;;;;;;1.27;1.17;;;;;;;;;;4970373;28;20030;-71
2021/07/09 07:37:17;;;;;;;2.67;1.30;;;;;;;;;;4969086;28;20166;-72
2021/07/09 07:39:42;;;;;;;1.17;1.07;;;;;;;;;;4971721;28;20058;-72
2021/07/09 07:42:07;;;;;;;0.93;0.93;;;;;;;;;;4968102;28;20309;-72
2021/07/09 07:44:33;;;;;;;0.90;0.90;;;;;;;;;;4969870;28;20933;-72
2021/07/09 07:46:58;;;;;;;1.20;1.10;;;;;;;;;;4970119;28;20042;-72
2021/07/09 07:49:23;;;;;;;1.33;1.20;;;;;;;;;;4970165;28;20019;-72
2021/07/09 07:51:51;;;;;;;1.20;1.10;;;;;;;;;;4972072;28;20258;-73
2021/07/09 07:54:17;;;;;;;1.10;1.10;;;;;;;;;;4969095;28;20034;-71
2021/07/09 07:56:43;;;;;;;1.10;1.00;;;;;;;;;;4969216;28;20556;-72
2021/07/09 07:59:08;;;;;;;1.70;1.50;;;;;;;;;;4969682;28;20034;-72
2021/07/09 08:01:33;;;;;;;1.87;1.73;;;;;;;;;;4970130;28;20090;-73
2021/07/09 08:03:59;;;;;;;1.73;1.50;;;;;;;;;;4970046;28;20301;-73
2021/07/09 08:06:24;;;;;;;1.42;1.38;;;;;;;;;;4969912;28;20027;-72
2021/07/09 08:08:49;;;;;;;1.50;1.40;;;;;;;;;;4969102;28;20412;-72
2021/07/09 08:11:14;;;;;;;1.43;1.33;;;;;;;;;;4969784;28;20077;-73
2021/07/09 08:13:40;;;;;;;1.73;1.60;;;;;;;;;;4969213;28;20948;-72
2021/07/09 08:16:06;;;;;;;1.50;1.40;;;;;;;;;;4971730;28;20066;-72
2021/07/09 08:18:31;;;;;;;1.48;1.38;;;;;;;;;;4971081;28;20031;-72
2021/07/09 08:20:57;;;;;;;1.50;1.40;;;;;;;;;;4969640;28;20524;-72
2021/07/09 08:23:22;;;;;;;1.55;1.45;;;;;;;;;;4969575;28;20105;-72
2021/07/09 08:25:48;;;;;;;1.23;1.13;;;;;;;;;;4969204;28;20043;-71
2021/07/09 08:28:14;;;;;;;1.85;1.30;;;;;;;;;;4970215;28;20030;-66
2021/07/09 08:30:41;;;;;;;1.02;1.00;;;;;;;;;;4972087;28;20106;-71
2021/07/09 08:33:06;;;;;;;1.10;1.00;;;;;;;;;;4968841;28;20531;-71
2021/07/09 08:35:31;;;;;;;1.27;1.17;;;;;;;;;;4969613;28;20038;-72
2021/07/09 08:37:56;;;;;;;1.20;1.10;;;;;;;;;;4969436;28;20285;-72
2021/07/09 08:40:22;;;;;;;1.17;1.17;;;;;;;;;;4969150;28;20037;-72
2021/07/09 08:42:47;;;;;;;1.20;1.10;;;;;;;;;;4970692;28;20026;-72
2021/07/09 08:45:12;;;;;;;1.15;1.00;;;;;;;;;;4969404;28;20050;-73
2021/07/09 08:47:37;;;;;;;0.80;0.80;;;;;;;;;;4968238;28;20041;-72
2021/07/09 08:50:05;;;;;;;1.25;1.15;;;;;;;;;;4969555;28;20272;-73
2021/07/09 08:52:32;;;;;;;1.33;1.00;;;;;;;;;;4968771;28;20484;-73
2021/07/09 08:54:58;;;;;;;1.38;1.20;;;;;;;;;;4970851;28;20586;-71
2021/07/09 08:57:23;;;;;;;1.02;1.00;;;;;;;;;;4969047;28;20035;-72
2021/07/09 08:59:48;;;;;;;1.40;1.30;;;;;;;;;;4969129;28;20432;-72
2021/07/09 09:02:23;;;;;;;1.90;1.30;;;;;;;;;;4968865;28;20283;-72
2021/07/09 09:04:51;;;;;;;1.75;1.40;;;;;;;;;;4969445;28;20290;-73
2021/07/09 09:07:16;;;;;;;2.28;1.48;;;;;;;;;;4969132;28;20065;-72
2021/07/09 09:09:41;;;;;;;2.28;1.10;;;;;;;;;;4973109;28;20050;-73
2021/07/09 09:12:08;;;;;;;1.50;1.33;;;;;;;;;;4972362;28;20034;-73
2021/07/09 09:14:40;;;;;;;1.52;1.17;;;;;;;;;;4973013;28;20282;-73
2021/07/09 09:17:44;;;;;;;1.10;1.10;;;;;;;;;;4971521;28;20039;-73
2021/07/09 09:20:12;;;;;;;0.95;0.95;;;;;;;;;;4950759;28;20441;-72
2021/07/09 09:22:49;;;;;;;0.95;0.90;;;;;;;;;;4934501;28;20033;-73
2021/07/09 09:25:15;;;;;;;1.00;0.90;;;;;;;;;;4962147;28;20035;-72
2021/07/09 09:27:40;;;;;;;0.73;0.73;;;;;;;;;;4980653;28;20069;-72
2021/07/09 09:30:09;;;;;;;0.73;0.73;;;;;;;;;;4990466;28;20446;-71
2021/07/09 09:32:43;;;;;;;1.27;0.70;;;;;;;;;;4991287;28;20097;-73
2021/07/09 09:35:08;;;;;;;0.70;0.70;;;;;;;;;;4991775;28;20030;-71
2021/07/09 09:37:33;;;;;;;0.80;0.80;;;;;;;;;;4991843;28;20926;-71
2021/07/09 09:39:58;;;;;;;0.80;0.80;;;;;;;;;;4985225;28;20037;-71
2021/07/09 09:42:27;;;;;;;0.97;0.97;;;;;;;;;;4971980;28;20671;-71
2021/07/09 09:44:59;;;;;;;1.27;1.15;;;;;;;;;;4972046;28;20321;-70
2021/07/09 09:47:26;;;;;;;0.90;0.90;;;;;;;;;;4971712;28;20023;-71
2021/07/09 09:49:55;;;;;;;1.05;1.05;;;;;;;;;;4972073;28;20058;-71
2021/07/09 09:52:37;;;;;;;2.05;1.27;;;;;;;;;;4970231;28;20033;-71
2021/07/09 09:55:04;;;;;;;1.63;1.20;;;;;;;;;;4973626;28;20066;-71
2021/07/09 09:57:29;;;;;;;1.50;1.40;;;;;;;;;;4970467;28;20117;-71
2021/07/09 09:59:54;;;;;;;1.60;1.50;;;;;;;;;;4971545;28;20605;-70
2021/07/09 10:02:21;;;;;;;1.73;1.60;;;;;;;;;;4971185;28;20030;-70
2021/07/09 10:04:46;;;;;;;1.48;1.38;;;;;;;;;;4972150;28;20389;-71
2021/07/09 10:07:12;;;;;;;1.85;1.75;;;;;;;;;;4973641;28;20514;-71
2021/07/09 10:09:39;;;;;;;1.52;1.42;;;;;;;;;;4971341;28;20130;-71
2021/07/09 10:12:04;;;;;;;2.65;1.60;;;;;;;;;;4971337;28;20043;-71
2021/07/09 10:14:30;;;;;;;1.20;1.20;;;;;;;;;;4971155;28;20070;-72
2021/07/09 10:17:00;;;;;;;1.30;1.20;;;;;;;;;;4971602;28;20045;-71
2021/07/09 10:19:35;;;;;;;1.40;1.30;;;;;;;;;;4971304;28;20373;-71
2021/07/09 10:22:00;;;;;;;1.33;1.23;;;;;;;;;;4973662;28;20029;-71
2021/07/09 10:24:26;;;;;;;1.58;1.48;;;;;;;;;;4970861;28;20027;-71
2021/07/09 10:26:53;;;;;;;2.90;1.42;;;;;;;;;;4971143;28;20031;-70
2021/07/09 10:29:19;;;;;;;1.80;1.70;;;;;;;;;;4971060;28;20081;-72
2021/07/09 10:31:46;;;;;;;1.95;1.80;;;;;;;;;;4971012;28;20046;-71
2021/07/09 10:34:24;;;;;;;2.38;2.08;;;;;;;;;;4972467;28;20098;-71
2021/07/09 10:36:51;;;;;;;2.10;1.95;;;;;;;;;;4971226;28;20070;-71
2021/07/09 10:39:29;;;;;;;2.42;2.22;;;;;;;;;;4970762;28;20038;-73
2021/07/09 10:41:54;;;;;;;2.17;2.08;;;;;;;;;;4968567;28;20042;-72
2021/07/09 10:44:19;;;;;;;2.60;2.40;;;;;;;;;;4970967;28;20082;-70
2021/07/09 10:46:45;;;;;;;3.10;2.90;;;;;;;;;;4971044;28;20035;-72
2021/07/09 10:49:10;;;;;;;2.80;2.60;;;;;;;;;;4972867;28;20022;-70
2021/07/09 10:51:48;;;;;;;2.50;2.30;;;;;;;;;;4970782;28;20125;-70
2021/07/09 10:54:23;;;;;;;2.83;2.60;;;;;;;;;;4970331;28;20038;-71
2021/07/09 10:57:08;;;;;;;4.30;2.85;;;;;;;;;;4966439;28;20073;-71
2021/07/09 10:59:53;;;;;;;2.45;2.25;;;;;;;;;;4968981;28;20043;-71
2021/07/09 11:02:37;;;;;;;2.97;2.78;;;;;;;;;;4970193;28;20042;-71
2021/07/09 11:05:02;;;;;;;3.63;3.00;;;;;;;;;;4970318;28;20031;-71
2021/07/09 11:07:28;;;;;;;2.70;2.50;;;;;;;;;;4970252;28;20421;-71
2021/07/09 11:09:53;;;;;;;2.87;2.67;;;;;;;;;;4972308;28;20037;-71
2021/07/09 11:12:27;;;;;;;3.30;3.10;;;;;;;;;;4969579;28;20276;-71
2021/07/09 11:14:55;;;;;;;3.53;3.05;;;;;;;;;;4970408;28;20268;-70
2021/07/09 11:17:23;;;;;;;3.60;2.90;;;;;;;;;;4970958;28;20039;-73
2021/07/09 11:19:49;;;;;;;3.50;2.80;;;;;;;;;;4970936;28;20488;-72
2021/07/09 11:22:15;;;;;;;3.10;2.80;;;;;;;;;;4972372;28;20023;-71
2021/07/09 11:24:40;;;;;;;3.53;3.22;;;;;;;;;;4970340;28;20038;-74
2021/07/09 11:27:07;;;;;;;3.38;3.10;;;;;;;;;;4968583;28;20093;-71
2021/07/09 11:29:42;;;;;;;3.47;3.22;;;;;;;;;;4970149;28;20042;-71
2021/07/09 11:32:07;;;;;;;3.88;3.58;;;;;;;;;;4969498;28;20039;-71
2021/07/09 11:34:41;;;;;;;7.32;5.00;;;;;;;;;;4969886;28;20074;-72
2021/07/09 11:37:08;;;;;;;10.90;10.10;;;;;;;;;;4970714;28;20041;-71
2021/07/09 11:39:34;;;;;;;14.80;13.27;;;;;;;;;;4968360;28;20050;-71
2021/07/09 11:42:01;;;;;;;15.85;14.27;;;;;;;;;;4977725;28;20117;-71
2021/07/09 11:44:26;;;;;;;18.83;14.90;;;;;;;;;;4969860;28;20528;-71
2021/07/09 11:46:54;;;;;;;17.20;15.70;;;;;;;;;;4970091;28;20045;-72
2021/07/09 11:49:20;;;;;;;17.77;14.85;;;;;;;;;;4968815;28;20022;-71
2021/07/09 11:51:46;;;;;;;18.60;16.63;;;;;;;;;;4971916;28;20153;-72
2021/07/09 11:54:11;;;;;;;35.13;21.05;;;;;;;;;;4969365;28;20038;-74
2021/07/09 11:56:37;;;;;;;21.63;19.38;;;;;;;;;;4969040;28;20047;-71
2021/07/09 11:59:16;;;;;;;30.42;18.83;;;;;;;;;;4969573;28;20061;-72
2021/07/09 12:01:42;;;;;;;23.02;19.00;;;;;;;;;;4969788;28;20042;-72
2021/07/09 12:04:07;;;;;;;30.50;23.60;;;;;;;;;;4971328;28;20093;-72
2021/07/09 12:06:32;;;;;;;14.32;12.98;;;;;;;;;;4969652;28;20085;-72
2021/07/09 12:08:58;;;;;;;15.05;13.73;;;;;;;;;;4968344;28;20039;-72
2021/07/09 12:11:23;;;;;;;10.35;9.35;;;;;;;;;;4968753;28;20122;-71
2021/07/09 12:14:05;;;;;;;12.20;11.03;;;;;;;;;;4967726;28;20485;-73
2021/07/09 12:16:32;;;;;;;8.98;8.07;;;;;;;;;;4969316;28;20668;-71
2021/07/09 12:18:57;;;;;;;7.75;7.18;;;;;;;;;;4971178;28;20069;-71
2021/07/09 12:21:24;;;;;;;7.43;6.80;;;;;;;;;;4970277;28;20039;-73
2021/07/09 12:23:59;;;;;;;6.32;5.80;;;;;;;;;;4967796;28;20081;-72
2021/07/09 12:26:25;;;;;;;6.65;6.13;;;;;;;;;;4967565;28;20069;-72
2021/07/09 12:28:50;;;;;;;6.07;5.47;;;;;;;;;;4969216;28;20070;-73
2021/07/09 12:31:15;;;;;;;5.18;4.63;;;;;;;;;;4980979;23;20342;-70
2021/07/09 12:33:49;;;;;;;4.87;4.40;;;;;;;;;;4948492;28;20035;-70
2021/07/09 12:36:15;;;;;;;4.38;4.07;;;;;;;;;;4950520;28;20263;-72
2021/07/09 12:38:42;;;;;;;3.80;3.50;;;;;;;;;;4950271;28;20039;-71
2021/07/09 12:41:08;;;;;;;3.97;3.58;;;;;;;;;;4956900;28;20362;-70
2021/07/09 12:43:44;;;;;;;3.92;3.70;;;;;;;;;;4963044;28;20050;-70
2021/07/09 12:46:11;;;;;;;4.22;3.80;;;;;;;;;;4974943;28;20380;-71
2021/07/09 12:48:45;;;;;;;4.45;3.83;;;;;;;;;;4973340;28;20034;-71
2021/07/09 12:51:19;;;;;;;4.53;4.07;;;;;;;;;;4973394;28;20559;-71
2021/07/09 12:54:00;;;;;;;3.95;3.67;;;;;;;;;;4972934;28;20129;-71
2021/07/09 12:56:27;;;;;;;4.88;4.47;;;;;;;;;;4967156;28;20023;-71
2021/07/09 12:59:01;;;;;;;4.10;3.80;;;;;;;;;;4953557;28;20063;-71
2021/07/09 13:01:26;;;;;;;3.45;3.25;;;;;;;;;;4952347;28;20038;-70
2021/07/09 13:03:52;;;;;;;5.28;3.08;;;;;;;;;;4955216;28;20559;-70
2021/07/09 13:06:17;;;;;;;3.28;3.08;;;;;;;;;;4953831;28;20039;-71
2021/07/09 13:08:46;;;;;;;3.63;3.38;;;;;;;;;;4953758;28;20238;-71
2021/07/09 13:11:14;;;;;;;3.17;2.92;;;;;;;;;;4959215;28;20031;-71
2021/07/09 13:13:41;;;;;;;3.30;3.00;;;;;;;;;;4952850;28;20461;-72
2021/07/09 13:16:13;;;;;;;3.22;2.75;;;;;;;;;;4955113;28;20355;-69
2021/07/09 13:18:39;;;;;;;1.88;1.77;;;;;;;;;;4951640;29;20039;-71
2021/07/09 13:21:09;;;;;;;2.28;2.10;;;;;;;;;;4953097;28;20039;-70
2021/07/09 13:23:35;;;;;;;2.13;2.00;;;;;;;;;;4952906;28;20039;-73
2021/07/09 13:26:00;;;;;;;1.98;1.88;;;;;;;;;;4958529;28;20123;-70
2021/07/09 13:28:35;;;;;;;2.67;1.80;;;;;;;;;;4952880;28;20013;-72
2021/07/09 13:31:00;;;;;;;2.00;1.80;;;;;;;;;;4954975;28;20038;-71
2021/07/09 13:33:25;;;;;;;1.90;1.80;;;;;;;;;;4951260;29;20035;-69
2021/07/09 13:35:54;;;;;;;2.10;1.80;;;;;;;;;;4953250;28;20283;-70
2021/07/09 13:38:20;;;;;;;4.10;1.88;;;;;;;;;;4952965;28;20322;-70
2021/07/09 13:40:45;;;;;;;2.10;1.75;;;;;;;;;;4972051;28;20492;-70
2021/07/09 13:43:10;;;;;;;1.60;1.50;;;;;;;;;;4954264;28;20118;-70
2021/07/09 13:45:37;;;;;;;3.65;1.90;;;;;;;;;;4952854;28;20633;-71
2021/07/09 13:48:02;;;;;;;1.50;1.40;;;;;;;;;;4952837;28;20039;-71
2021/07/09 13:50:30;;;;;;;2.90;1.15;;;;;;;;;;4952485;28;20038;-70
2021/07/09 13:52:56;;;;;;;1.83;1.60;;;;;;;;;;4951043;29;20035;-71
2021/07/09 13:55:21;;;;;;;2.07;1.73;;;;;;;;;;4953503;28;20027;-71
2021/07/09 13:57:46;;;;;;;6.90;2.58;;;;;;;;;;4973328;28;20270;-70
2021/07/09 14:00:12;;;;;;;7.50;5.73;;;;;;;;;;4952429;28;20567;-68
2021/07/09 14:02:37;;;;;;;14.10;6.15;;;;;;;;;;4952016;28;20271;-67
2021/07/09 14:05:03;;;;;;;10.15;9.00;;;;;;;;;;4952344;28;20043;-66
2021/07/09 14:07:29;;;;;;;13.07;9.38;;;;;;;;;;4952319;28;20033;-66
2021/07/09 14:09:54;;;;;;;8.07;7.47;;;;;;;;;;4968957;28;20028;-66
2021/07/09 14:12:19;;;;;;;9.88;8.05;;;;;;;;;;4953220;28;20685;-66
2021/07/09 14:14:44;;;;;;;12.20;10.33;;;;;;;;;;4950943;28;20031;-67
2021/07/09 14:17:10;;;;;;;9.05;8.13;;;;;;;;;;4950698;29;21040;-66
2021/07/09 14:19:35;;;;;;;12.95;11.35;;;;;;;;;;4951727;28;20033;-66
2021/07/09 14:22:01;;;;;;;8.45;7.75;;;;;;;;;;4954110;28;20098;-66
2021/07/09 14:24:26;;;;;;;10.52;9.40;;;;;;;;;;4951707;28;20043;-66
2021/07/09 14:26:52;;;;;;;7.10;6.30;;;;;;;;;;4954240;28;20035;-66
2021/07/09 14:29:18;;;;;;;20.30;12.70;;;;;;;;;;4951935;28;20035;-66
2021/07/09 14:31:43;;;;;;;18.00;10.55;;;;;;;;;;4951618;28;20114;-66
2021/07/09 14:34:09;;;;;;;53.20;14.18;;;;;;;;;;4953474;28;20019;-68
2021/07/09 14:36:34;;;;;;;28.90;12.40;;;;;;;;;;4951708;28;20412;-67